VTBSVTBU

Guest
Details From VTBS - Bangkok Suvarnabhumi Intl
To VTBU - Rayon U-taphao Intl
Flight Number -
Tags Generated
Created
Modified
Stats Distance 62 nm / 116 km
Max Altitude 0 ft / 0 m
Waypoints 2
Social Downloads 10
Likes 0
Share VATSIM

Download

Looking for another format? Having issues loading an existing format? Contact us
Advertisement - Login to hide

Notes

Generated

Route

VTBS VTBU

ID Type Via Altitude Latitude Longitude Leg Dist Tot Dist Heading (true) Name
O VTBS APT - 0 ft / 0 m 13.70327˚ 100.74297˚ - 0 nm - -
O VTBU APT - 0 ft / 0 m 12.69583˚ 101.00635˚ 62 nm 62 nm 166° / 166° -

Altitude Profile

Advertisement - Login to hide

VTBS

Details ICAO VTBS (BKK)
Name Bangkok Suvarnabhumi Intl
Region Thailand
Timezone Asia/Bangkok (UTC+7.0)
Stats Elevation 5 ft / 2 m (AMSL)
Location 13.680456° 100.747512°
Runways 2
Magnetic Variation 0.571° W

METAR

VTBS 181500Z 05010KT CAVOK 22/10 Q1019 NOSIG

Decode

TAF

TAF VTBS 181100Z 1812/1918 08010KT CAVOK BECMG 1902/1904 9999 FEW040 BECMG 1911/1913 03005KT CAVOK

Decode

Departure Runways

ID Width Length Bearing (true) Bearing (mag) Surface Threshold Offset Overrun Length
01L 200 ft / 61 m 12,194 ft / 3,717 m 14.26° 14.83° Asphalt 0 ft / 0 m 400 ft / 122 m
01R 200 ft / 61 m 13,181 ft / 4,018 m 14.19° 14.76° Asphalt 0 ft / 0 m 400 ft / 122 m
19L 200 ft / 61 m 13,181 ft / 4,018 m 194.19° 194.76° Asphalt 0 ft / 0 m 400 ft / 122 m
19R 200 ft / 61 m 12,194 ft / 3,717 m 194.26° 194.83° Asphalt 0 ft / 0 m 400 ft / 122 m

VTBU

Details ICAO VTBU (UTP)
Name Rayon U-Taphao Intl
Region Thailand
Timezone Asia/Bangkok (UTC+7.0)
Stats Elevation 59 ft / 18 m (AMSL)
Location 12.679954° 101.005033°
Runways 1
Magnetic Variation 0.519° W

METAR

VTBU 181500Z 01006KT 5000 HZ FEW025 19/12 Q1017 NOSIG

Decode

TAF

TAF VTBU 181100Z 1812/1912 03008KT 7000 FEW020 BECMG 1813/1815 01006KT 5000 HZ BECMG 1819/1821 06004KT 4000 BR

Decode

Destination Runways

ID Width Length Bearing (true) Bearing (mag) Surface Threshold Offset Overrun Length
18 197 ft / 60 m 11,627 ft / 3,544 m 184.62° 185.14° Asphalt 0 ft / 0 m 1,000 ft / 305 m
36 197 ft / 60 m 11,627 ft / 3,544 m 4.62° 5.14° Asphalt 0 ft / 0 m 1,000 ft / 305 m

Approach Navaids

Runway Type Ident Frequency Range Bearing (true) Bearing (mag) Slope Elevation
18 Localiser IBUT 111.10 MHz 18 nm / 33 km 184.62° 185.14° - 24 ft / 7 m (AMSL)
18 Glidescope IBUT 111.10 MHz 10 nm / 19 km 184.62° 185.14° 3.00° 59 ft / 18 m (AMSL)
18 DME IBUT 111.10 MHz 18 nm / 33 km - - - 59 ft / 18 m (AMSL)

Popular Alternatives